createdAt,value
2017-08-22T00:00:19.791Z,2.00
2017-08-22T00:02:50.220Z,2.30
2017-08-22T00:05:20.108Z,1.67
2017-08-22T00:07:49.641Z,1.90
2017-08-22T00:10:18.174Z,2.13
2017-08-22T00:12:46.541Z,1.90
2017-08-22T00:15:14.980Z,2.40
2017-08-22T00:17:43.362Z,1.60
2017-08-22T00:20:11.738Z,1.87
2017-08-22T00:22:40.137Z,1.70
2017-08-22T00:25:08.519Z,1.70
2017-08-22T00:27:36.939Z,1.40
2017-08-22T00:30:05.316Z,2.03
2017-08-22T00:32:33.725Z,1.50
2017-08-22T00:35:02.110Z,1.80
2017-08-22T00:37:30.487Z,1.60
2017-08-22T00:39:58.879Z,1.47
2017-08-22T00:42:32.316Z,1.17
2017-08-22T00:45:01.962Z,1.90
2017-08-22T00:47:31.288Z,1.50
2017-08-22T00:49:59.772Z,1.60
2017-08-22T00:52:28.133Z,1.53
2017-08-22T00:54:56.493Z,1.57
2017-08-22T00:57:24.891Z,1.63
2017-08-22T00:59:53.290Z,1.77
2017-08-22T01:02:21.679Z,1.70
2017-08-22T01:04:50.055Z,1.77
2017-08-22T01:07:18.488Z,1.53
2017-08-22T01:09:46.870Z,2.43
2017-08-22T01:12:15.278Z,1.70
2017-08-22T01:14:43.640Z,1.83
2017-08-22T01:17:12.016Z,2.20
2017-08-22T01:19:40.417Z,2.10
2017-08-22T01:22:08.826Z,1.97
2017-08-22T01:24:37.239Z,2.10
2017-08-22T01:27:05.623Z,1.90
2017-08-22T01:29:34.040Z,1.60
2017-08-22T01:32:02.420Z,2.13
2017-08-22T01:34:30.820Z,1.83
2017-08-22T01:36:59.245Z,1.80
2017-08-22T01:39:27.618Z,1.63
2017-08-22T01:41:56.155Z,1.83
2017-08-22T01:44:24.546Z,2.10
2017-08-22T01:46:52.959Z,1.97
2017-08-22T01:49:21.335Z,1.50
2017-08-22T01:51:49.793Z,2.03
2017-08-22T01:54:18.312Z,1.73
2017-08-22T01:56:46.703Z,2.50
2017-08-22T01:59:15.198Z,2.80
2017-08-22T02:01:43.593Z,2.10
2017-08-22T02:04:12.003Z,1.90
2017-08-22T02:06:40.381Z,2.10
2017-08-22T02:09:08.803Z,1.47
2017-08-22T02:11:37.171Z,2.07
2017-08-22T02:14:05.581Z,1.87
2017-08-22T02:16:33.969Z,1.73
2017-08-22T02:19:02.400Z,1.87
2017-08-22T02:21:30.779Z,2.07
2017-08-22T02:23:59.192Z,1.77
2017-08-22T02:26:27.560Z,1.40
2017-08-22T02:28:55.986Z,1.60
2017-08-22T02:31:24.389Z,1.63
2017-08-22T02:33:52.823Z,2.00
2017-08-22T02:36:21.217Z,1.67
2017-08-22T02:38:49.631Z,1.57
2017-08-22T02:41:18.035Z,1.73
2017-08-22T02:43:46.435Z,2.00
2017-08-22T02:46:14.834Z,2.43
2017-08-22T02:48:43.218Z,2.07
2017-08-22T02:51:11.633Z,1.90
2017-08-22T02:53:40.019Z,2.07
2017-08-22T02:56:08.451Z,1.70
2017-08-22T02:58:36.843Z,1.53
2017-08-22T03:01:05.255Z,1.73
2017-08-22T03:03:33.648Z,2.30
2017-08-22T03:06:02.032Z,2.60
2017-08-22T03:08:30.449Z,2.30
2017-08-22T03:10:58.813Z,2.53
2017-08-22T03:13:27.211Z,2.93
2017-08-22T03:15:55.594Z,1.60
2017-08-22T03:18:24.002Z,2.27
2017-08-22T03:20:52.392Z,2.30
2017-08-22T03:23:20.791Z,2.40
2017-08-22T03:25:49.160Z,2.33
2017-08-22T03:28:17.566Z,1.87
2017-08-22T03:30:45.948Z,2.80
2017-08-22T03:33:14.314Z,2.57
2017-08-22T03:35:42.719Z,2.20
2017-08-22T03:38:11.107Z,2.10
2017-08-22T03:40:39.508Z,2.63
2017-08-22T03:43:07.903Z,2.53
2017-08-22T03:45:36.342Z,2.53
2017-08-22T03:48:04.719Z,3.10
2017-08-22T03:50:33.125Z,2.43
2017-08-22T03:53:04.476Z,2.27
2017-08-22T03:55:33.531Z,2.00
2017-08-22T03:58:01.927Z,2.30
2017-08-22T04:00:30.295Z,2.13
2017-08-22T04:02:58.694Z,1.40
2017-08-22T04:05:27.115Z,2.50
2017-08-22T04:07:55.472Z,1.70
2017-08-22T04:10:23.868Z,2.20
2017-08-22T04:12:52.232Z,1.57
2017-08-22T04:15:20.640Z,1.83
2017-08-22T04:17:49.026Z,1.90
2017-08-22T04:20:17.428Z,2.17
2017-08-22T04:22:45.799Z,2.67
2017-08-22T04:25:14.184Z,1.83
2017-08-22T04:27:42.622Z,2.30
2017-08-22T04:30:10.981Z,2.40
2017-08-22T04:32:39.364Z,1.80
2017-08-22T04:35:07.796Z,2.40
2017-08-22T04:37:36.335Z,1.63
2017-08-22T04:40:04.725Z,1.87
2017-08-22T04:42:33.095Z,2.17
2017-08-22T04:45:01.482Z,2.23
2017-08-22T04:47:29.856Z,1.87
2017-08-22T04:49:58.277Z,1.70
2017-08-22T04:52:26.667Z,2.37
2017-08-22T04:54:56.930Z,1.73
2017-08-22T04:57:26.276Z,2.40
2017-08-22T04:59:54.671Z,2.87
2017-08-22T05:02:23.034Z,2.10
2017-08-22T05:04:51.426Z,2.20
2017-08-22T05:07:19.811Z,2.17
2017-08-22T05:09:48.346Z,2.30
2017-08-22T05:12:16.882Z,2.50
2017-08-22T05:14:45.498Z,2.10
2017-08-22T05:17:13.931Z,1.97
2017-08-22T05:19:42.296Z,2.00
2017-08-22T05:22:10.682Z,2.13
2017-08-22T05:24:39.076Z,2.20
2017-08-22T05:27:07.450Z,2.50
2017-08-22T05:29:35.855Z,1.90
2017-08-22T05:32:04.229Z,2.20
2017-08-22T05:34:32.643Z,1.90
2017-08-22T05:37:01.095Z,1.83
2017-08-22T05:39:29.546Z,1.60
2017-08-22T05:41:57.959Z,2.00
2017-08-22T05:44:26.339Z,2.20
2017-08-22T05:46:54.733Z,2.27
2017-08-22T05:49:23.102Z,2.33
2017-08-22T05:51:51.509Z,2.20
2017-08-22T05:54:19.878Z,2.20
2017-08-22T05:56:48.259Z,2.10
2017-08-22T05:59:16.666Z,2.00
2017-08-22T06:01:45.061Z,2.67
2017-08-22T06:04:13.433Z,1.70
2017-08-22T06:06:41.967Z,2.17
2017-08-22T06:09:10.370Z,2.20
2017-08-22T06:11:38.768Z,3.00
2017-08-22T06:14:07.180Z,2.10
2017-08-22T06:16:35.560Z,2.33
2017-08-22T06:19:03.953Z,2.47
2017-08-22T06:21:32.323Z,2.00
2017-08-22T06:24:00.694Z,1.80
2017-08-22T06:26:29.861Z,2.17
2017-08-22T06:28:58.252Z,1.73
2017-08-22T06:31:26.659Z,1.63
2017-08-22T06:33:55.051Z,1.70
2017-08-22T06:36:23.414Z,2.37
2017-08-22T06:38:51.843Z,2.10
2017-08-22T06:41:20.219Z,2.00
2017-08-22T06:43:48.627Z,2.40
2017-08-22T06:46:17.012Z,2.33
2017-08-22T06:48:45.401Z,3.23
2017-08-22T06:51:13.778Z,2.50
2017-08-22T06:53:42.183Z,2.20
2017-08-22T06:56:10.561Z,2.90
2017-08-22T06:58:38.949Z,1.90
2017-08-22T07:01:07.364Z,2.50
2017-08-22T07:03:35.752Z,1.70
2017-08-22T07:06:04.146Z,3.37
2017-08-22T07:08:32.526Z,2.70
2017-08-22T07:11:00.936Z,2.00
2017-08-22T07:13:29.319Z,2.17
2017-08-22T07:15:57.723Z,2.00
2017-08-22T07:18:26.101Z,2.10
2017-08-22T07:20:54.469Z,1.73
2017-08-22T07:23:22.853Z,2.00
2017-08-22T07:25:51.232Z,2.50
2017-08-22T07:28:19.642Z,2.10
2017-08-22T07:30:48.022Z,2.40
2017-08-22T07:33:16.412Z,2.30
2017-08-22T07:35:44.773Z,2.00
2017-08-22T07:38:13.139Z,2.17
2017-08-22T07:40:41.543Z,2.90
2017-08-22T07:43:09.925Z,2.83
2017-08-22T07:45:38.314Z,2.60
2017-08-22T07:48:06.692Z,3.10
2017-08-22T07:50:35.093Z,3.80
2017-08-22T07:53:03.485Z,2.20
2017-08-22T07:55:31.876Z,2.83
2017-08-22T07:58:00.336Z,2.97
2017-08-22T08:00:28.701Z,2.90
2017-08-22T08:02:57.091Z,2.30
2017-08-22T08:05:25.461Z,2.33
2017-08-22T08:07:53.871Z,2.00
2017-08-22T08:10:22.239Z,2.77
2017-08-22T08:12:50.629Z,2.90
2017-08-22T08:15:19.015Z,2.90
2017-08-22T08:17:47.436Z,3.10
2017-08-22T08:20:15.805Z,3.00
2017-08-22T08:22:44.169Z,3.10
2017-08-22T08:25:12.572Z,2.60
2017-08-22T08:27:40.965Z,4.30
2017-08-22T08:30:09.357Z,2.70
2017-08-22T08:32:37.725Z,2.90
2017-08-22T08:35:06.106Z,2.60
2017-08-22T08:37:34.509Z,3.23
2017-08-22T08:40:02.891Z,2.93
2017-08-22T08:42:31.294Z,4.30
2017-08-22T08:44:59.674Z,2.80
2017-08-22T08:47:28.080Z,3.23
2017-08-22T08:49:56.460Z,3.20
2017-08-22T08:52:24.875Z,2.80
2017-08-22T08:54:53.244Z,3.80
2017-08-22T08:57:21.638Z,2.93
2017-08-22T08:59:50.041Z,3.83
2017-08-22T09:02:18.410Z,3.00
2017-08-22T09:04:46.826Z,2.43
2017-08-22T09:07:15.214Z,2.63
2017-08-22T09:09:43.615Z,2.67
2017-08-22T09:12:11.982Z,3.07
2017-08-22T09:14:40.385Z,2.00
2017-08-22T09:17:08.761Z,1.97
2017-08-22T09:19:37.176Z,1.40
2017-08-22T09:22:05.556Z,2.03
2017-08-22T09:24:33.930Z,2.33
2017-08-22T09:27:02.339Z,2.00
2017-08-22T09:29:30.715Z,1.60
2017-08-22T09:31:59.097Z,1.37
2017-08-22T09:34:27.469Z,1.57
2017-08-22T09:36:55.934Z,1.70
2017-08-22T09:39:24.300Z,1.90
2017-08-22T09:41:52.679Z,1.03
2017-08-22T09:44:21.045Z,1.10
2017-08-22T09:46:49.450Z,1.50
2017-08-22T09:49:17.808Z,1.30
2017-08-22T09:51:46.169Z,1.37
2017-08-22T09:54:14.562Z,1.60
2017-08-22T09:56:42.929Z,1.23
2017-08-22T09:59:11.344Z,1.47
2017-08-22T10:01:39.719Z,1.60
2017-08-22T10:04:08.132Z,1.10
2017-08-22T10:06:36.515Z,1.10
2017-08-22T10:09:04.909Z,1.50
2017-08-22T10:11:33.284Z,1.10
2017-08-22T10:14:30.730Z,1.13
2017-08-22T10:16:59.091Z,1.23
2017-08-22T10:19:27.487Z,1.23
2017-08-22T10:21:55.871Z,1.00
2017-08-22T10:24:24.237Z,1.33
2017-08-22T10:26:52.622Z,0.93
2017-08-22T10:29:21.000Z,1.00
2017-08-22T10:31:49.395Z,0.90
2017-08-22T10:34:17.760Z,1.27
2017-08-22T10:36:46.153Z,1.00
2017-08-22T10:39:14.541Z,1.30
2017-08-22T10:41:42.940Z,1.10
2017-08-22T10:44:11.308Z,0.87
2017-08-22T10:46:39.683Z,1.03
2017-08-22T10:49:08.081Z,1.20
2017-08-22T10:51:36.462Z,1.10
2017-08-22T10:54:04.857Z,1.40
2017-08-22T10:56:33.228Z,1.30
2017-08-22T10:59:01.664Z,1.40
2017-08-22T11:01:30.032Z,0.70
2017-08-22T11:03:58.459Z,0.60
2017-08-22T11:06:26.821Z,0.93
2017-08-22T11:08:55.180Z,0.83
2017-08-22T11:11:23.586Z,1.00
2017-08-22T11:13:51.963Z,1.10
2017-08-22T11:16:20.349Z,1.30
2017-08-22T11:18:48.723Z,1.37
2017-08-22T11:21:17.136Z,1.10
2017-08-22T11:23:45.518Z,0.80
2017-08-22T11:26:13.901Z,0.90
2017-08-22T11:28:42.306Z,1.33
2017-08-22T11:31:10.687Z,1.00
2017-08-22T11:33:39.074Z,1.20
2017-08-22T11:36:07.445Z,1.00
2017-08-22T11:38:35.832Z,1.20
2017-08-22T11:41:04.197Z,0.80
2017-08-22T11:43:32.561Z,0.90
2017-08-22T11:46:00.995Z,0.90
2017-08-22T11:48:29.371Z,1.10
2017-08-22T11:50:57.790Z,1.13
2017-08-22T11:53:26.178Z,1.10
2017-08-22T11:55:54.565Z,1.00
2017-08-22T11:58:22.933Z,0.90
2017-08-22T12:00:51.320Z,1.50
2017-08-22T12:03:19.711Z,1.10
2017-08-22T12:05:48.084Z,1.23
2017-08-22T12:08:16.475Z,1.43
2017-08-22T12:10:44.851Z,0.90
2017-08-22T12:13:13.255Z,1.23
2017-08-22T12:15:41.637Z,0.90
2017-08-22T12:18:10.039Z,1.40
2017-08-22T12:20:38.405Z,1.20
2017-08-22T12:23:06.778Z,1.27
2017-08-22T12:25:35.186Z,0.80
2017-08-22T12:28:03.791Z,0.83
2017-08-22T12:30:32.775Z,1.10
2017-08-22T12:33:01.339Z,1.00
2017-08-22T12:35:29.736Z,1.00
2017-08-22T12:37:58.124Z,0.87
2017-08-22T12:40:26.504Z,1.10
2017-08-22T12:42:54.906Z,1.00
2017-08-22T12:45:23.297Z,1.30
2017-08-22T12:47:51.679Z,0.93
2017-08-22T12:50:20.050Z,0.80
2017-08-22T12:52:48.448Z,1.00
2017-08-22T12:55:16.823Z,0.70
2017-08-22T12:57:45.196Z,1.10
2017-08-22T13:00:13.572Z,0.90
2017-08-22T13:02:41.965Z,1.20
2017-08-22T13:05:10.343Z,0.97
2017-08-22T13:07:38.748Z,1.07
2017-08-22T13:10:07.144Z,1.03
2017-08-22T13:12:35.532Z,1.20
2017-08-22T13:15:03.922Z,1.20
2017-08-22T13:17:32.332Z,1.10
2017-08-22T13:20:00.712Z,0.97
2017-08-22T13:22:29.077Z,1.53
2017-08-22T13:24:57.483Z,0.87
2017-08-22T13:27:25.845Z,0.90
2017-08-22T13:29:54.248Z,1.20
2017-08-22T13:32:22.636Z,1.07
2017-08-22T13:34:51.050Z,0.97
2017-08-22T13:37:19.426Z,1.10
2017-08-22T13:39:47.811Z,0.97
2017-08-22T13:42:16.205Z,0.80
2017-08-22T13:44:44.577Z,1.10
2017-08-22T13:47:12.966Z,1.20
2017-08-22T13:49:41.334Z,1.20
2017-08-22T13:52:09.740Z,0.60
2017-08-22T13:54:38.115Z,0.97
2017-08-22T13:57:06.497Z,0.87
2017-08-22T13:59:34.895Z,0.77
2017-08-22T14:02:03.272Z,0.90
2017-08-22T14:04:31.664Z,0.90
2017-08-22T14:07:00.038Z,1.03
2017-08-22T14:09:28.432Z,0.87
2017-08-22T14:11:56.800Z,0.73
2017-08-22T14:14:25.158Z,1.40
2017-08-22T14:16:53.566Z,1.13
2017-08-22T14:19:21.958Z,1.00
2017-08-22T14:21:50.345Z,0.83
2017-08-22T14:24:18.728Z,0.70
2017-08-22T14:26:47.123Z,1.20
2017-08-22T14:29:15.503Z,1.00
2017-08-22T14:31:43.897Z,1.20
2017-08-22T14:34:12.270Z,1.20
2017-08-22T14:36:40.666Z,1.00
2017-08-22T14:39:09.042Z,0.70
2017-08-22T14:41:37.464Z,0.87
2017-08-22T14:44:05.833Z,0.97
2017-08-22T14:46:34.192Z,0.93
2017-08-22T14:49:02.579Z,1.00
2017-08-22T14:51:30.949Z,1.10
2017-08-22T14:53:59.340Z,1.20
2017-08-22T14:56:27.704Z,1.03
2017-08-22T14:58:56.076Z,0.73
2017-08-22T15:01:24.468Z,1.07
2017-08-22T15:03:52.877Z,1.07
2017-08-22T15:06:21.249Z,1.00
2017-08-22T15:08:49.658Z,0.70
2017-08-22T15:11:18.021Z,1.23
2017-08-22T15:13:46.428Z,0.87
2017-08-22T15:16:14.794Z,1.00
2017-08-22T15:18:43.270Z,1.20
2017-08-22T15:21:11.693Z,0.97
2017-08-22T15:23:40.088Z,1.27
2017-08-22T15:26:08.487Z,0.90
2017-08-22T15:28:36.853Z,1.10
2017-08-22T15:31:05.209Z,1.17
2017-08-22T15:33:33.606Z,1.13
2017-08-22T15:36:01.986Z,1.20
2017-08-22T15:38:30.401Z,1.17
2017-08-22T15:40:58.776Z,1.10
2017-08-22T15:43:27.162Z,1.13
2017-08-22T15:45:55.568Z,1.27
2017-08-22T15:48:24.176Z,1.20
2017-08-22T15:50:52.561Z,1.20
2017-08-22T15:53:21.496Z,0.80
2017-08-22T15:55:49.957Z,1.40
2017-08-22T15:58:18.489Z,1.17
2017-08-22T16:00:46.945Z,0.93
2017-08-22T16:03:15.370Z,1.20
2017-08-22T16:05:43.769Z,1.00
2017-08-22T16:08:12.154Z,1.20
2017-08-22T16:10:40.560Z,1.30
2017-08-22T16:13:08.936Z,0.90
2017-08-22T16:15:38.111Z,1.20
2017-08-22T16:18:06.496Z,1.10
2017-08-22T16:20:34.916Z,1.07
2017-08-22T16:23:03.297Z,0.90
2017-08-22T16:25:31.705Z,0.90
2017-08-22T16:28:00.104Z,0.90
2017-08-22T16:30:28.521Z,1.47
2017-08-22T16:32:56.920Z,1.00
2017-08-22T16:35:25.339Z,1.17
2017-08-22T16:37:53.724Z,1.13
2017-08-22T16:40:22.213Z,0.93
2017-08-22T16:42:50.583Z,0.90
2017-08-22T16:45:18.982Z,1.17
2017-08-22T16:47:47.366Z,1.20
2017-08-22T16:50:15.778Z,1.00
2017-08-22T16:52:44.160Z,1.07
2017-08-22T16:55:12.581Z,1.00
2017-08-22T16:57:40.954Z,1.20
2017-08-22T17:00:09.335Z,1.20
2017-08-22T17:02:37.742Z,1.40
2017-08-22T17:05:06.149Z,1.57
2017-08-22T17:07:34.543Z,0.90
2017-08-22T17:10:02.950Z,1.10
2017-08-22T17:12:31.347Z,1.10
2017-08-22T17:14:59.729Z,1.67
2017-08-22T17:17:28.116Z,0.70
2017-08-22T17:19:56.518Z,0.80
2017-08-22T17:22:24.957Z,1.30
2017-08-22T17:24:53.322Z,1.07
2017-08-22T17:27:21.721Z,1.00
2017-08-22T17:29:50.081Z,0.90
2017-08-22T17:32:18.478Z,1.00
2017-08-22T17:34:46.848Z,1.33
2017-08-22T17:37:15.219Z,1.10
2017-08-22T17:39:43.613Z,1.37
2017-08-22T17:42:11.981Z,1.20
2017-08-22T17:44:40.392Z,0.90
2017-08-22T17:47:08.776Z,1.40
2017-08-22T17:49:37.151Z,1.20
2017-08-22T17:52:05.551Z,1.43
2017-08-22T17:54:33.940Z,1.20
2017-08-22T17:57:02.339Z,1.40
2017-08-22T17:59:30.711Z,1.30
2017-08-22T18:01:59.099Z,1.80
2017-08-22T18:04:27.489Z,1.73
2017-08-22T18:06:55.895Z,1.80
2017-08-22T18:09:24.270Z,1.77
2017-08-22T18:11:52.675Z,2.00
2017-08-22T18:14:21.054Z,1.93
2017-08-22T18:16:49.475Z,1.80
2017-08-22T18:19:17.838Z,1.30
2017-08-22T18:21:46.214Z,2.30
2017-08-22T18:24:14.619Z,2.33
2017-08-22T18:26:43.007Z,2.20
2017-08-22T18:29:11.397Z,2.00
2017-08-22T18:31:39.786Z,1.83
2017-08-22T18:34:08.195Z,1.77
2017-08-22T18:36:36.564Z,2.03
2017-08-22T18:39:04.968Z,2.10
2017-08-22T18:41:33.351Z,2.00
2017-08-22T18:44:01.742Z,1.80
2017-08-22T18:46:30.109Z,1.90
2017-08-22T18:48:58.511Z,2.43
2017-08-22T18:51:26.887Z,2.40
2017-08-22T18:53:55.302Z,1.87
2017-08-22T18:56:23.685Z,2.40
2017-08-22T18:58:52.086Z,2.10
2017-08-22T19:01:20.472Z,1.83
2017-08-22T19:03:48.842Z,2.03
2017-08-22T19:06:17.244Z,2.30
2017-08-22T19:08:45.652Z,2.10
2017-08-22T19:11:14.048Z,2.57
2017-08-22T19:13:42.463Z,2.53
2017-08-22T19:16:10.870Z,2.50
2017-08-22T19:18:39.256Z,2.30
2017-08-22T19:21:07.679Z,2.40
2017-08-22T19:23:36.059Z,2.30
2017-08-22T19:26:04.457Z,2.40
2017-08-22T19:28:32.892Z,2.60
2017-08-22T19:31:01.261Z,2.53
2017-08-22T19:33:29.666Z,2.30
2017-08-22T19:35:58.058Z,2.30
2017-08-22T19:38:26.450Z,1.80
2017-08-22T19:40:54.847Z,2.10
2017-08-22T19:43:23.215Z,2.30
2017-08-22T19:45:51.651Z,2.20
2017-08-22T19:48:20.038Z,2.30
2017-08-22T19:50:48.446Z,2.53
2017-08-22T19:53:16.830Z,1.97
2017-08-22T19:55:45.208Z,2.53
2017-08-22T19:58:13.630Z,2.33
2017-08-22T20:00:42.007Z,2.63
2017-08-22T20:03:10.407Z,2.03
2017-08-22T20:05:38.801Z,2.57
2017-08-22T20:08:07.183Z,1.93
2017-08-22T20:10:35.569Z,2.40
2017-08-22T20:13:03.957Z,2.50
2017-08-22T20:15:32.373Z,2.23
2017-08-22T20:18:00.760Z,2.60
2017-08-22T20:20:29.135Z,2.27
2017-08-22T20:22:57.537Z,2.50
2017-08-22T20:25:25.912Z,1.83
2017-08-22T20:27:54.300Z,2.20
2017-08-22T20:30:22.707Z,2.30
2017-08-22T20:32:51.083Z,1.87
2017-08-22T20:35:19.499Z,2.00
2017-08-22T20:37:47.893Z,2.53
2017-08-22T20:40:16.261Z,2.00
2017-08-22T20:45:22.346Z,2.13
2017-08-22T20:47:50.803Z,2.50
2017-08-22T20:50:19.205Z,2.10
2017-08-22T20:52:47.566Z,2.00
2017-08-22T20:55:16.023Z,2.40
2017-08-22T20:57:44.439Z,1.90
2017-08-22T21:00:12.985Z,1.87
2017-08-22T21:02:41.442Z,2.03
2017-08-22T21:05:09.865Z,1.90
2017-08-22T21:07:38.263Z,2.40
2017-08-22T21:10:06.625Z,1.87
2017-08-22T21:12:35.015Z,1.80
2017-08-22T21:15:03.373Z,2.03
2017-08-22T21:17:31.737Z,2.27
2017-08-22T21:20:00.143Z,1.80
2017-08-22T21:22:28.516Z,1.77
2017-08-22T21:24:56.927Z,1.60
2017-08-22T21:27:25.320Z,1.80
2017-08-22T21:29:53.706Z,2.10
2017-08-22T21:32:22.130Z,1.87
2017-08-22T21:34:50.507Z,1.93
2017-08-22T21:37:18.891Z,2.07
2017-08-22T21:39:47.285Z,2.20
2017-08-22T21:42:15.668Z,2.30
2017-08-22T21:44:44.041Z,2.00
2017-08-22T21:47:12.452Z,2.60
2017-08-22T21:49:40.831Z,1.67
2017-08-22T21:52:09.309Z,1.90
2017-08-22T21:54:37.687Z,2.00
2017-08-22T21:57:06.063Z,1.90
2017-08-22T21:59:34.497Z,2.10
2017-08-22T22:02:02.897Z,2.20
2017-08-22T22:04:31.310Z,2.00
2017-08-22T22:06:59.686Z,2.10
2017-08-22T22:09:28.068Z,2.10
2017-08-22T22:11:56.471Z,2.00
2017-08-22T22:14:24.851Z,2.10
2017-08-22T22:16:53.255Z,1.73
2017-08-22T22:19:21.642Z,2.10
2017-08-22T22:21:50.027Z,1.77
2017-08-22T22:24:18.440Z,2.03
2017-08-22T22:26:46.805Z,2.30
2017-08-22T22:29:15.204Z,2.13
2017-08-22T22:31:43.573Z,1.70
2017-08-22T22:34:11.954Z,1.73
2017-08-22T22:36:40.392Z,1.90
2017-08-22T22:39:08.756Z,1.90
2017-08-22T22:41:37.137Z,1.57
2017-08-22T22:44:05.509Z,2.90
2017-08-22T22:46:33.916Z,1.90
2017-08-22T22:49:02.276Z,2.27
2017-08-22T22:51:30.641Z,2.40
2017-08-22T22:53:59.035Z,1.93
2017-08-22T22:56:27.409Z,2.73
2017-08-22T22:58:55.793Z,2.30
2017-08-22T23:01:24.155Z,2.43
2017-08-22T23:03:52.541Z,1.63
2017-08-22T23:06:20.923Z,2.30
2017-08-22T23:08:49.269Z,1.73
2017-08-22T23:11:17.684Z,1.70
2017-08-22T23:13:46.075Z,1.97
2017-08-22T23:16:14.450Z,1.83
2017-08-22T23:18:42.832Z,2.30
2017-08-22T23:21:11.188Z,2.70
2017-08-22T23:23:39.580Z,2.10
2017-08-22T23:26:07.942Z,1.90
2017-08-22T23:28:36.298Z,1.83
2017-08-22T23:31:04.677Z,2.50
2017-08-22T23:33:33.041Z,1.90
2017-08-22T23:36:01.432Z,2.40
2017-08-22T23:38:29.787Z,2.63
2017-08-22T23:40:58.143Z,2.20
2017-08-22T23:43:26.535Z,2.30
2017-08-22T23:45:54.909Z,2.03
2017-08-22T23:48:23.293Z,1.73
2017-08-22T23:50:51.700Z,1.93
2017-08-22T23:53:20.083Z,2.00
2017-08-22T23:55:48.481Z,2.20
2017-08-22T23:58:16.831Z,2.10
